sensor_id;sensor_type;location;lat;lon;timestamp;P1;durP1;ratioP1;P2;durP2;ratioP2
6663;SDS011;58749;48.022;10.922;2023-02-15T00:01:31;34.15;;;20.02;;
6663;SDS011;58749;48.022;10.922;2023-02-15T00:04:04;37.22;;;21.50;;
6663;SDS011;58749;48.022;10.922;2023-02-15T00:06:33;39.97;;;24.00;;
6663;SDS011;58749;48.022;10.922;2023-02-15T00:09:03;30.20;;;18.75;;
6663;SDS011;58749;48.022;10.922;2023-02-15T00:11:31;35.80;;;19.30;;
6663;SDS011;58749;48.022;10.922;2023-02-15T00:14:11;33.42;;;19.85;;
6663;SDS011;58749;48.022;10.922;2023-02-15T00:16:41;30.80;;;19.50;;
6663;SDS011;58749;48.022;10.922;2023-02-15T00:19:10;28.25;;;17.40;;
6663;SDS011;58749;48.022;10.922;2023-02-15T00:21:42;36.00;;;20.75;;
6663;SDS011;58749;48.022;10.922;2023-02-15T00:24:11;33.42;;;20.52;;
6663;SDS011;58749;48.022;10.922;2023-02-15T00:26:41;29.95;;;17.90;;
6663;SDS011;58749;48.022;10.922;2023-02-15T00:29:12;28.55;;;18.38;;
6663;SDS011;58749;48.022;10.922;2023-02-15T00:31:45;29.92;;;17.75;;
6663;SDS011;58749;48.022;10.922;2023-02-15T00:34:15;33.20;;;18.17;;
6663;SDS011;58749;48.022;10.922;2023-02-15T00:36:45;36.22;;;20.77;;
6663;SDS011;58749;48.022;10.922;2023-02-15T00:39:14;30.02;;;17.80;;
6663;SDS011;58749;48.022;10.922;2023-02-15T00:41:46;30.58;;;18.98;;
6663;SDS011;58749;48.022;10.922;2023-02-15T00:44:20;41.33;;;21.65;;
6663;SDS011;58749;48.022;10.922;2023-02-15T00:46:48;41.63;;;24.15;;
6663;SDS011;58749;48.022;10.922;2023-02-15T00:49:16;40.53;;;21.38;;
6663;SDS011;58749;48.022;10.922;2023-02-15T00:51:44;34.95;;;19.25;;
6663;SDS011;58749;48.022;10.922;2023-02-15T00:54:13;32.25;;;18.55;;
6663;SDS011;58749;48.022;10.922;2023-02-15T00:56:41;34.10;;;19.80;;
6663;SDS011;58749;48.022;10.922;2023-02-15T00:59:09;38.75;;;21.92;;
6663;SDS011;58749;48.022;10.922;2023-02-15T01:01:39;38.15;;;21.63;;
6663;SDS011;58749;48.022;10.922;2023-02-15T01:04:08;32.13;;;18.73;;
6663;SDS011;58749;48.022;10.922;2023-02-15T01:06:36;35.53;;;19.42;;
6663;SDS011;58749;48.022;10.922;2023-02-15T01:09:04;32.50;;;19.77;;
6663;SDS011;58749;48.022;10.922;2023-02-15T01:11:35;29.35;;;18.73;;
6663;SDS011;58749;48.022;10.922;2023-02-15T01:14:03;31.20;;;18.33;;
6663;SDS011;58749;48.022;10.922;2023-02-15T01:16:35;36.55;;;18.98;;
6663;SDS011;58749;48.022;10.922;2023-02-15T01:19:05;29.35;;;17.67;;
6663;SDS011;58749;48.022;10.922;2023-02-15T01:21:33;30.50;;;18.10;;
6663;SDS011;58749;48.022;10.922;2023-02-15T01:24:02;28.00;;;17.40;;
6663;SDS011;58749;48.022;10.922;2023-02-15T01:26:30;32.97;;;15.25;;
6663;SDS011;58749;48.022;10.922;2023-02-15T01:29:02;29.38;;;18.65;;
6663;SDS011;58749;48.022;10.922;2023-02-15T01:31:32;38.45;;;20.10;;
6663;SDS011;58749;48.022;10.922;2023-02-15T01:34:00;30.90;;;17.45;;
6663;SDS011;58749;48.022;10.922;2023-02-15T01:36:31;28.10;;;17.67;;
6663;SDS011;58749;48.022;10.922;2023-02-15T01:39:01;32.92;;;17.83;;
6663;SDS011;58749;48.022;10.922;2023-02-15T01:41:30;26.70;;;15.77;;
6663;SDS011;58749;48.022;10.922;2023-02-15T01:43:59;33.70;;;18.73;;
6663;SDS011;58749;48.022;10.922;2023-02-15T01:46:30;33.50;;;18.23;;
6663;SDS011;58749;48.022;10.922;2023-02-15T01:49:03;27.65;;;17.58;;
6663;SDS011;58749;48.022;10.922;2023-02-15T01:51:39;28.33;;;17.35;;
6663;SDS011;58749;48.022;10.922;2023-02-15T01:56:40;33.90;;;18.92;;
6663;SDS011;58749;48.022;10.922;2023-02-15T01:59:13;27.95;;;17.00;;
6663;SDS011;58749;48.022;10.922;2023-02-15T02:01:44;33.00;;;17.70;;
6663;SDS011;58749;48.022;10.922;2023-02-15T02:04:13;28.27;;;15.95;;
6663;SDS011;58749;48.022;10.922;2023-02-15T02:06:47;27.35;;;16.52;;
6663;SDS011;58749;48.022;10.922;2023-02-15T02:09:17;28.98;;;17.45;;
6663;SDS011;58749;48.022;10.922;2023-02-15T02:11:46;27.63;;;16.73;;
6663;SDS011;58749;48.022;10.922;2023-02-15T02:14:18;29.38;;;15.63;;
6663;SDS011;58749;48.022;10.922;2023-02-15T02:16:51;28.10;;;16.65;;
6663;SDS011;58749;48.022;10.922;2023-02-15T02:19:46;30.77;;;15.73;;
6663;SDS011;58749;48.022;10.922;2023-02-15T02:22:53;31.15;;;16.83;;
6663;SDS011;58749;48.022;10.922;2023-02-15T02:29:12;32.22;;;17.02;;
6663;SDS011;58749;48.022;10.922;2023-02-15T02:35:16;26.25;;;14.82;;
6663;SDS011;58749;48.022;10.922;2023-02-15T02:37:51;21.58;;;13.43;;
6663;SDS011;58749;48.022;10.922;2023-02-15T02:40:30;26.38;;;14.40;;
6663;SDS011;58749;48.022;10.922;2023-02-15T02:43:04;27.67;;;16.88;;
6663;SDS011;58749;48.022;10.922;2023-02-15T02:45:39;24.90;;;14.30;;
6663;SDS011;58749;48.022;10.922;2023-02-15T02:48:12;27.77;;;15.70;;
6663;SDS011;58749;48.022;10.922;2023-02-15T02:50:44;25.10;;;15.82;;
6663;SDS011;58749;48.022;10.922;2023-02-15T02:53:13;24.67;;;14.80;;
6663;SDS011;58749;48.022;10.922;2023-02-15T02:55:44;23.88;;;14.50;;
6663;SDS011;58749;48.022;10.922;2023-02-15T02:58:19;22.33;;;13.55;;
6663;SDS011;58749;48.022;10.922;2023-02-15T03:00:52;21.70;;;12.82;;
6663;SDS011;58749;48.022;10.922;2023-02-15T03:03:24;20.60;;;13.27;;
6663;SDS011;58749;48.022;10.922;2023-02-15T03:05:59;23.98;;;14.18;;
6663;SDS011;58749;48.022;10.922;2023-02-15T03:08:31;18.13;;;12.45;;
6663;SDS011;58749;48.022;10.922;2023-02-15T03:11:03;22.05;;;13.48;;
6663;SDS011;58749;48.022;10.922;2023-02-15T03:13:32;18.33;;;12.23;;
6663;SDS011;58749;48.022;10.922;2023-02-15T03:16:01;21.90;;;13.63;;
6663;SDS011;58749;48.022;10.922;2023-02-15T03:19:09;20.13;;;13.07;;
6663;SDS011;58749;48.022;10.922;2023-02-15T03:21:45;19.35;;;12.68;;
6663;SDS011;58749;48.022;10.922;2023-02-15T03:24:16;18.42;;;11.68;;
6663;SDS011;58749;48.022;10.922;2023-02-15T03:26:49;15.75;;;10.60;;
6663;SDS011;58749;48.022;10.922;2023-02-15T03:29:19;15.55;;;10.52;;
6663;SDS011;58749;48.022;10.922;2023-02-15T03:31:50;30.58;;;10.95;;
6663;SDS011;58749;48.022;10.922;2023-02-15T03:34:22;25.80;;;11.85;;
6663;SDS011;58749;48.022;10.922;2023-02-15T03:36:52;19.55;;;11.52;;
6663;SDS011;58749;48.022;10.922;2023-02-15T03:39:32;25.25;;;12.07;;
6663;SDS011;58749;48.022;10.922;2023-02-15T03:42:05;30.70;;;12.40;;
6663;SDS011;58749;48.022;10.922;2023-02-15T03:44:42;17.38;;;11.15;;
6663;SDS011;58749;48.022;10.922;2023-02-15T03:47:17;21.73;;;12.13;;
6663;SDS011;58749;48.022;10.922;2023-02-15T03:49:51;21.15;;;13.20;;
6663;SDS011;58749;48.022;10.922;2023-02-15T03:52:24;24.65;;;14.13;;
6663;SDS011;58749;48.022;10.922;2023-02-15T03:54:54;21.17;;;12.18;;
6663;SDS011;58749;48.022;10.922;2023-02-15T03:57:23;21.77;;;13.48;;
6663;SDS011;58749;48.022;10.922;2023-02-15T04:00:11;21.98;;;13.32;;
6663;SDS011;58749;48.022;10.922;2023-02-15T04:03:03;19.67;;;12.80;;
6663;SDS011;58749;48.022;10.922;2023-02-15T04:05:48;18.33;;;11.40;;
6663;SDS011;58749;48.022;10.922;2023-02-15T04:08:18;13.90;;;9.43;;
6663;SDS011;58749;48.022;10.922;2023-02-15T04:10:46;18.17;;;11.18;;
6663;SDS011;58749;48.022;10.922;2023-02-15T04:13:19;17.10;;;10.55;;
6663;SDS011;58749;48.022;10.922;2023-02-15T04:15:47;16.70;;;10.80;;
6663;SDS011;58749;48.022;10.922;2023-02-15T04:18:32;18.95;;;12.38;;
6663;SDS011;58749;48.022;10.922;2023-02-15T04:21:19;16.45;;;11.43;;
6663;SDS011;58749;48.022;10.922;2023-02-15T04:24:06;17.60;;;10.80;;
6663;SDS011;58749;48.022;10.922;2023-02-15T04:26:52;15.05;;;10.45;;
6663;SDS011;58749;48.022;10.922;2023-02-15T04:29:21;15.45;;;9.82;;
6663;SDS011;58749;48.022;10.922;2023-02-15T04:31:50;11.25;;;8.40;;
6663;SDS011;58749;48.022;10.922;2023-02-15T04:34:19;10.63;;;8.02;;
6663;SDS011;58749;48.022;10.922;2023-02-15T04:36:47;13.80;;;9.20;;
6663;SDS011;58749;48.022;10.922;2023-02-15T04:39:18;12.65;;;8.73;;
6663;SDS011;58749;48.022;10.922;2023-02-15T04:41:46;12.77;;;8.57;;
6663;SDS011;58749;48.022;10.922;2023-02-15T04:44:14;14.88;;;10.77;;
6663;SDS011;58749;48.022;10.922;2023-02-15T04:46:42;14.63;;;9.75;;
6663;SDS011;58749;48.022;10.922;2023-02-15T04:49:11;12.63;;;9.00;;
6663;SDS011;58749;48.022;10.922;2023-02-15T04:51:39;14.50;;;10.15;;
6663;SDS011;58749;48.022;10.922;2023-02-15T04:54:07;13.70;;;9.75;;
6663;SDS011;58749;48.022;10.922;2023-02-15T04:56:37;15.48;;;9.43;;
6663;SDS011;58749;48.022;10.922;2023-02-15T04:59:05;13.88;;;9.93;;
6663;SDS011;58749;48.022;10.922;2023-02-15T05:01:33;15.32;;;10.35;;
6663;SDS011;58749;48.022;10.922;2023-02-15T05:04:01;14.70;;;9.55;;
6663;SDS011;58749;48.022;10.922;2023-02-15T05:06:29;16.08;;;10.65;;
6663;SDS011;58749;48.022;10.922;2023-02-15T05:08:58;16.02;;;10.38;;
6663;SDS011;58749;48.022;10.922;2023-02-15T05:11:26;15.55;;;10.55;;
6663;SDS011;58749;48.022;10.922;2023-02-15T05:13:56;15.10;;;9.75;;
6663;SDS011;58749;48.022;10.922;2023-02-15T05:16:24;13.07;;;9.00;;
6663;SDS011;58749;48.022;10.922;2023-02-15T05:18:53;14.52;;;9.95;;
6663;SDS011;58749;48.022;10.922;2023-02-15T05:21:21;13.05;;;9.18;;
6663;SDS011;58749;48.022;10.922;2023-02-15T05:23:49;15.85;;;10.27;;
6663;SDS011;58749;48.022;10.922;2023-02-15T05:26:18;13.88;;;9.10;;
6663;SDS011;58749;48.022;10.922;2023-02-15T05:29:06;15.75;;;10.15;;
6663;SDS011;58749;48.022;10.922;2023-02-15T05:31:34;13.60;;;9.80;;
6663;SDS011;58749;48.022;10.922;2023-02-15T05:34:03;14.57;;;9.80;;
6663;SDS011;58749;48.022;10.922;2023-02-15T05:36:31;13.85;;;9.55;;
6663;SDS011;58749;48.022;10.922;2023-02-15T05:38:59;13.88;;;9.02;;
6663;SDS011;58749;48.022;10.922;2023-02-15T05:41:30;13.20;;;8.90;;
6663;SDS011;58749;48.022;10.922;2023-02-15T05:43:58;14.07;;;9.38;;
6663;SDS011;58749;48.022;10.922;2023-02-15T05:46:27;14.80;;;9.75;;
6663;SDS011;58749;48.022;10.922;2023-02-15T05:48:56;15.93;;;9.63;;
6663;SDS011;58749;48.022;10.922;2023-02-15T05:51:24;14.02;;;9.20;;
6663;SDS011;58749;48.022;10.922;2023-02-15T05:53:52;15.30;;;9.70;;
6663;SDS011;58749;48.022;10.922;2023-02-15T05:56:20;15.43;;;10.88;;
6663;SDS011;58749;48.022;10.922;2023-02-15T05:58:48;14.23;;;10.75;;
6663;SDS011;58749;48.022;10.922;2023-02-15T06:01:16;14.93;;;10.48;;
6663;SDS011;58749;48.022;10.922;2023-02-15T06:03:46;15.23;;;10.00;;
6663;SDS011;58749;48.022;10.922;2023-02-15T06:06:14;14.75;;;9.77;;
6663;SDS011;58749;48.022;10.922;2023-02-15T06:08:42;15.50;;;10.35;;
6663;SDS011;58749;48.022;10.922;2023-02-15T06:11:11;17.48;;;10.93;;
6663;SDS011;58749;48.022;10.922;2023-02-15T06:13:39;14.82;;;9.40;;
6663;SDS011;58749;48.022;10.922;2023-02-15T06:16:07;15.95;;;10.73;;
6663;SDS011;58749;48.022;10.922;2023-02-15T06:18:35;15.85;;;10.82;;
6663;SDS011;58749;48.022;10.922;2023-02-15T06:21:04;17.20;;;11.48;;
6663;SDS011;58749;48.022;10.922;2023-02-15T06:23:32;13.90;;;10.30;;
6663;SDS011;58749;48.022;10.922;2023-02-15T06:26:00;15.63;;;10.30;;
6663;SDS011;58749;48.022;10.922;2023-02-15T06:28:29;16.55;;;9.65;;
6663;SDS011;58749;48.022;10.922;2023-02-15T06:30:56;15.07;;;10.80;;
6663;SDS011;58749;48.022;10.922;2023-02-15T06:33:25;16.30;;;9.88;;
6663;SDS011;58749;48.022;10.922;2023-02-15T06:35:53;14.75;;;10.10;;
6663;SDS011;58749;48.022;10.922;2023-02-15T06:38:22;15.18;;;9.93;;
6663;SDS011;58749;48.022;10.922;2023-02-15T06:40:51;14.82;;;10.20;;
6663;SDS011;58749;48.022;10.922;2023-02-15T06:43:19;16.50;;;10.38;;
6663;SDS011;58749;48.022;10.922;2023-02-15T06:45:47;16.08;;;10.50;;
6663;SDS011;58749;48.022;10.922;2023-02-15T06:48:15;14.55;;;10.05;;
6663;SDS011;58749;48.022;10.922;2023-02-15T06:50:44;12.23;;;8.95;;
6663;SDS011;58749;48.022;10.922;2023-02-15T06:53:12;15.48;;;10.18;;
6663;SDS011;58749;48.022;10.922;2023-02-15T06:55:44;19.52;;;11.52;;
6663;SDS011;58749;48.022;10.922;2023-02-15T06:58:12;15.32;;;9.63;;
6663;SDS011;58749;48.022;10.922;2023-02-15T07:00:40;16.33;;;10.48;;
6663;SDS011;58749;48.022;10.922;2023-02-15T07:03:08;15.43;;;10.32;;
6663;SDS011;58749;48.022;10.922;2023-02-15T07:05:36;16.65;;;10.43;;
6663;SDS011;58749;48.022;10.922;2023-02-15T07:08:04;17.83;;;11.90;;
6663;SDS011;58749;48.022;10.922;2023-02-15T07:10:32;17.20;;;10.23;;
6663;SDS011;58749;48.022;10.922;2023-02-15T07:13:01;15.25;;;9.40;;
6663;SDS011;58749;48.022;10.922;2023-02-15T07:15:28;16.73;;;10.07;;
6663;SDS011;58749;48.022;10.922;2023-02-15T07:17:56;15.68;;;9.07;;
6663;SDS011;58749;48.022;10.922;2023-02-15T07:20:25;16.48;;;9.30;;
6663;SDS011;58749;48.022;10.922;2023-02-15T07:22:53;15.23;;;9.75;;
6663;SDS011;58749;48.022;10.922;2023-02-15T07:25:21;13.63;;;9.48;;
6663;SDS011;58749;48.022;10.922;2023-02-15T07:27:54;15.70;;;9.82;;
6663;SDS011;58749;48.022;10.922;2023-02-15T07:30:24;16.17;;;10.00;;
6663;SDS011;58749;48.022;10.922;2023-02-15T07:32:54;16.77;;;10.57;;
6663;SDS011;58749;48.022;10.922;2023-02-15T07:35:45;16.95;;;10.57;;
6663;SDS011;58749;48.022;10.922;2023-02-15T07:38:15;14.02;;;9.57;;
6663;SDS011;58749;48.022;10.922;2023-02-15T07:40:43;14.13;;;9.30;;
6663;SDS011;58749;48.022;10.922;2023-02-15T07:43:11;14.77;;;9.35;;
6663;SDS011;58749;48.022;10.922;2023-02-15T07:45:41;15.95;;;9.95;;
6663;SDS011;58749;48.022;10.922;2023-02-15T07:48:09;12.63;;;9.40;;
6663;SDS011;58749;48.022;10.922;2023-02-15T07:50:38;14.73;;;9.68;;
6663;SDS011;58749;48.022;10.922;2023-02-15T07:53:06;14.88;;;8.77;;
6663;SDS011;58749;48.022;10.922;2023-02-15T07:55:34;16.25;;;9.65;;
6663;SDS011;58749;48.022;10.922;2023-02-15T07:58:02;14.38;;;9.38;;
6663;SDS011;58749;48.022;10.922;2023-02-15T08:00:30;15.80;;;10.00;;
6663;SDS011;58749;48.022;10.922;2023-02-15T08:03:19;12.55;;;9.05;;
6663;SDS011;58749;48.022;10.922;2023-02-15T08:05:55;16.25;;;9.88;;
6663;SDS011;58749;48.022;10.922;2023-02-15T08:08:25;14.60;;;9.18;;
6663;SDS011;58749;48.022;10.922;2023-02-15T08:10:57;18.38;;;11.35;;
6663;SDS011;58749;48.022;10.922;2023-02-15T08:13:44;26.42;;;14.55;;
6663;SDS011;58749;48.022;10.922;2023-02-15T08:16:22;17.58;;;11.25;;
6663;SDS011;58749;48.022;10.922;2023-02-15T08:18:52;23.65;;;12.60;;
6663;SDS011;58749;48.022;10.922;2023-02-15T08:21:20;21.30;;;12.55;;
6663;SDS011;58749;48.022;10.922;2023-02-15T08:23:50;13.23;;;9.02;;
6663;SDS011;58749;48.022;10.922;2023-02-15T08:26:18;14.82;;;9.55;;
6663;SDS011;58749;48.022;10.922;2023-02-15T08:28:46;14.75;;;9.35;;
6663;SDS011;58749;48.022;10.922;2023-02-15T08:31:15;17.33;;;10.52;;
6663;SDS011;58749;48.022;10.922;2023-02-15T08:33:43;14.32;;;9.57;;
6663;SDS011;58749;48.022;10.922;2023-02-15T08:36:15;14.32;;;8.95;;
6663;SDS011;58749;48.022;10.922;2023-02-15T08:38:44;16.05;;;9.20;;
6663;SDS011;58749;48.022;10.922;2023-02-15T08:41:13;13.90;;;8.80;;
6663;SDS011;58749;48.022;10.922;2023-02-15T08:43:42;14.00;;;8.70;;
6663;SDS011;58749;48.022;10.922;2023-02-15T08:46:11;14.68;;;9.25;;
6663;SDS011;58749;48.022;10.922;2023-02-15T08:48:40;14.82;;;9.35;;
6663;SDS011;58749;48.022;10.922;2023-02-15T08:51:09;15.23;;;8.45;;
6663;SDS011;58749;48.022;10.922;2023-02-15T08:53:40;22.60;;;14.30;;
6663;SDS011;58749;48.022;10.922;2023-02-15T08:56:09;36.92;;;22.80;;
6663;SDS011;58749;48.022;10.922;2023-02-15T08:58:37;14.57;;;9.45;;
6663;SDS011;58749;48.022;10.922;2023-02-15T09:01:09;22.65;;;14.32;;
6663;SDS011;58749;48.022;10.922;2023-02-15T09:03:38;18.55;;;11.90;;
6663;SDS011;58749;48.022;10.922;2023-02-15T09:06:07;20.92;;;12.85;;
6663;SDS011;58749;48.022;10.922;2023-02-15T09:08:35;24.63;;;11.95;;
6663;SDS011;58749;48.022;10.922;2023-02-15T09:11:08;20.02;;;12.25;;
6663;SDS011;58749;48.022;10.922;2023-02-15T09:13:38;54.10;;;28.33;;
6663;SDS011;58749;48.022;10.922;2023-02-15T09:16:07;72.53;;;40.63;;
6663;SDS011;58749;48.022;10.922;2023-02-15T09:18:37;53.25;;;29.27;;
6663;SDS011;58749;48.022;10.922;2023-02-15T09:21:07;64.82;;;37.22;;
6663;SDS011;58749;48.022;10.922;2023-02-15T09:23:36;39.75;;;17.15;;
6663;SDS011;58749;48.022;10.922;2023-02-15T09:26:05;34.97;;;18.02;;
6663;SDS011;58749;48.022;10.922;2023-02-15T09:28:36;33.92;;;19.52;;
6663;SDS011;58749;48.022;10.922;2023-02-15T09:31:05;28.13;;;16.17;;
6663;SDS011;58749;48.022;10.922;2023-02-15T09:33:36;25.63;;;15.60;;
6663;SDS011;58749;48.022;10.922;2023-02-15T09:36:06;24.15;;;15.15;;
6663;SDS011;58749;48.022;10.922;2023-02-15T09:38:42;22.90;;;14.77;;
6663;SDS011;58749;48.022;10.922;2023-02-15T09:41:23;25.85;;;13.98;;
6663;SDS011;58749;48.022;10.922;2023-02-15T09:44:13;23.55;;;13.38;;
6663;SDS011;58749;48.022;10.922;2023-02-15T09:47:01;15.68;;;10.43;;
6663;SDS011;58749;48.022;10.922;2023-02-15T09:49:46;17.70;;;12.32;;
6663;SDS011;58749;48.022;10.922;2023-02-15T09:52:26;18.85;;;12.18;;
6663;SDS011;58749;48.022;10.922;2023-02-15T09:55:13;22.15;;;11.30;;
6663;SDS011;58749;48.022;10.922;2023-02-15T09:58:07;19.80;;;12.73;;
6663;SDS011;58749;48.022;10.922;2023-02-15T10:00:46;16.80;;;11.80;;
6663;SDS011;58749;48.022;10.922;2023-02-15T10:03:29;19.20;;;11.15;;
6663;SDS011;58749;48.022;10.922;2023-02-15T10:06:23;15.85;;;9.98;;
6663;SDS011;58749;48.022;10.922;2023-02-15T10:09:14;15.38;;;9.90;;
6663;SDS011;58749;48.022;10.922;2023-02-15T10:12:10;13.85;;;8.90;;
6663;SDS011;58749;48.022;10.922;2023-02-15T10:15:03;19.50;;;8.95;;
6663;SDS011;58749;48.022;10.922;2023-02-15T10:17:52;11.77;;;7.03;;
6663;SDS011;58749;48.022;10.922;2023-02-15T10:20:36;13.00;;;7.70;;
6663;SDS011;58749;48.022;10.922;2023-02-15T10:23:18;12.52;;;6.95;;
6663;SDS011;58749;48.022;10.922;2023-02-15T10:25:58;12.10;;;7.18;;
6663;SDS011;58749;48.022;10.922;2023-02-15T10:28:39;13.38;;;6.88;;
6663;SDS011;58749;48.022;10.922;2023-02-15T10:31:14;10.30;;;6.28;;
6663;SDS011;58749;48.022;10.922;2023-02-15T10:36:49;11.63;;;6.75;;
6663;SDS011;58749;48.022;10.922;2023-02-15T10:39:32;10.90;;;6.20;;
6663;SDS011;58749;48.022;10.922;2023-02-15T10:42:09;10.98;;;6.70;;
6663;SDS011;58749;48.022;10.922;2023-02-15T10:44:45;12.95;;;6.60;;
6663;SDS011;58749;48.022;10.922;2023-02-15T10:47:27;15.27;;;7.30;;
6663;SDS011;58749;48.022;10.922;2023-02-15T10:50:13;7.85;;;5.88;;
6663;SDS011;58749;48.022;10.922;2023-02-15T10:52:54;9.07;;;5.10;;
6663;SDS011;58749;48.022;10.922;2023-02-15T10:55:37;14.65;;;8.07;;
6663;SDS011;58749;48.022;10.922;2023-02-15T10:58:15;10.55;;;7.20;;
6663;SDS011;58749;48.022;10.922;2023-02-15T11:00:51;12.82;;;8.65;;
6663;SDS011;58749;48.022;10.922;2023-02-15T11:03:36;15.73;;;7.95;;
6663;SDS011;58749;48.022;10.922;2023-02-15T11:06:15;14.38;;;8.57;;
6663;SDS011;58749;48.022;10.922;2023-02-15T11:08:47;20.48;;;8.70;;
6663;SDS011;58749;48.022;10.922;2023-02-15T11:11:20;15.73;;;8.82;;
6663;SDS011;58749;48.022;10.922;2023-02-15T11:13:52;13.45;;;8.85;;
6663;SDS011;58749;48.022;10.922;2023-02-15T11:16:25;18.38;;;8.27;;
6663;SDS011;58749;48.022;10.922;2023-02-15T11:18:57;13.93;;;7.95;;
6663;SDS011;58749;48.022;10.922;2023-02-15T11:24:07;10.73;;;6.57;;
6663;SDS011;58749;48.022;10.922;2023-02-15T11:26:39;10.80;;;6.40;;
6663;SDS011;58749;48.022;10.922;2023-02-15T11:29:11;11.88;;;7.07;;
6663;SDS011;58749;48.022;10.922;2023-02-15T11:31:46;10.98;;;6.03;;
6663;SDS011;58749;48.022;10.922;2023-02-15T11:34:18;9.32;;;5.75;;
6663;SDS011;58749;48.022;10.922;2023-02-15T11:36:54;8.00;;;5.50;;
6663;SDS011;58749;48.022;10.922;2023-02-15T11:39:26;8.95;;;5.70;;
6663;SDS011;58749;48.022;10.922;2023-02-15T11:41:59;8.35;;;5.78;;
6663;SDS011;58749;48.022;10.922;2023-02-15T11:44:32;11.68;;;6.68;;
6663;SDS011;58749;48.022;10.922;2023-02-15T11:47:02;8.35;;;5.40;;
6663;SDS011;58749;48.022;10.922;2023-02-15T11:49:31;8.05;;;4.60;;
6663;SDS011;58749;48.022;10.922;2023-02-15T11:52:02;9.85;;;5.80;;
6663;SDS011;58749;48.022;10.922;2023-02-15T11:54:34;9.38;;;5.28;;
6663;SDS011;58749;48.022;10.922;2023-02-15T11:57:10;12.85;;;6.20;;
6663;SDS011;58749;48.022;10.922;2023-02-15T11:59:43;9.15;;;5.07;;
6663;SDS011;58749;48.022;10.922;2023-02-15T12:02:16;12.00;;;7.10;;
6663;SDS011;58749;48.022;10.922;2023-02-15T12:04:47;13.80;;;7.55;;
6663;SDS011;58749;48.022;10.922;2023-02-15T12:07:21;16.63;;;7.00;;
6663;SDS011;58749;48.022;10.922;2023-02-15T12:09:53;15.00;;;7.05;;
6663;SDS011;58749;48.022;10.922;2023-02-15T12:12:29;12.50;;;6.97;;
6663;SDS011;58749;48.022;10.922;2023-02-15T12:14:58;15.02;;;7.30;;
6663;SDS011;58749;48.022;10.922;2023-02-15T12:17:28;10.57;;;6.25;;
6663;SDS011;58749;48.022;10.922;2023-02-15T12:20:00;13.85;;;5.97;;
6663;SDS011;58749;48.022;10.922;2023-02-15T12:22:31;12.77;;;6.45;;
6663;SDS011;58749;48.022;10.922;2023-02-15T12:27:32;13.00;;;6.03;;
6663;SDS011;58749;48.022;10.922;2023-02-15T12:30:04;12.75;;;6.57;;
6663;SDS011;58749;48.022;10.922;2023-02-15T12:32:35;11.25;;;6.95;;
6663;SDS011;58749;48.022;10.922;2023-02-15T12:35:18;12.30;;;6.03;;
6663;SDS011;58749;48.022;10.922;2023-02-15T12:37:56;9.07;;;5.80;;
6663;SDS011;58749;48.022;10.922;2023-02-15T12:40:28;12.52;;;5.88;;
6663;SDS011;58749;48.022;10.922;2023-02-15T12:42:57;12.65;;;6.10;;
6663;SDS011;58749;48.022;10.922;2023-02-15T12:45:26;10.38;;;6.32;;
6663;SDS011;58749;48.022;10.922;2023-02-15T12:48:09;12.77;;;6.55;;
6663;SDS011;58749;48.022;10.922;2023-02-15T12:50:47;13.15;;;6.93;;
6663;SDS011;58749;48.022;10.922;2023-02-15T12:53:22;10.85;;;7.47;;
6663;SDS011;58749;48.022;10.922;2023-02-15T12:55:58;10.05;;;6.78;;
6663;SDS011;58749;48.022;10.922;2023-02-15T12:58:27;10.20;;;5.93;;
6663;SDS011;58749;48.022;10.922;2023-02-15T13:01:04;9.30;;;5.82;;
6663;SDS011;58749;48.022;10.922;2023-02-15T13:03:53;10.95;;;6.68;;
6663;SDS011;58749;48.022;10.922;2023-02-15T13:06:25;13.13;;;6.70;;
6663;SDS011;58749;48.022;10.922;2023-02-15T13:08:56;17.25;;;7.35;;
6663;SDS011;58749;48.022;10.922;2023-02-15T13:11:27;13.90;;;7.13;;
6663;SDS011;58749;48.022;10.922;2023-02-15T13:14:00;11.80;;;7.63;;
6663;SDS011;58749;48.022;10.922;2023-02-15T13:16:30;13.82;;;6.93;;
6663;SDS011;58749;48.022;10.922;2023-02-15T13:19:02;12.50;;;7.47;;
6663;SDS011;58749;48.022;10.922;2023-02-15T13:21:34;12.57;;;7.53;;
6663;SDS011;58749;48.022;10.922;2023-02-15T13:24:19;11.23;;;7.53;;
6663;SDS011;58749;48.022;10.922;2023-02-15T13:26:51;14.10;;;7.32;;
6663;SDS011;58749;48.022;10.922;2023-02-15T13:29:40;13.98;;;7.28;;
6663;SDS011;58749;48.022;10.922;2023-02-15T13:32:12;11.93;;;7.95;;
6663;SDS011;58749;48.022;10.922;2023-02-15T13:34:49;12.20;;;6.93;;
6663;SDS011;58749;48.022;10.922;2023-02-15T13:37:23;13.30;;;7.15;;
6663;SDS011;58749;48.022;10.922;2023-02-15T13:40:07;10.57;;;7.25;;
6663;SDS011;58749;48.022;10.922;2023-02-15T13:42:41;17.75;;;6.90;;
6663;SDS011;58749;48.022;10.922;2023-02-15T13:45:19;13.68;;;7.40;;
6663;SDS011;58749;48.022;10.922;2023-02-15T13:50:49;13.82;;;6.35;;
6663;SDS011;58749;48.022;10.922;2023-02-15T13:53:30;11.45;;;6.30;;
6663;SDS011;58749;48.022;10.922;2023-02-15T13:56:13;14.55;;;6.60;;
6663;SDS011;58749;48.022;10.922;2023-02-15T13:59:03;10.85;;;6.07;;
6663;SDS011;58749;48.022;10.922;2023-02-15T14:01:43;7.20;;;5.45;;
6663;SDS011;58749;48.022;10.922;2023-02-15T14:07:19;12.27;;;5.70;;
6663;SDS011;58749;48.022;10.922;2023-02-15T14:09:57;8.23;;;5.18;;
6663;SDS011;58749;48.022;10.922;2023-02-15T14:12:44;8.50;;;5.05;;
6663;SDS011;58749;48.022;10.922;2023-02-15T14:15:26;8.50;;;5.25;;
6663;SDS011;58749;48.022;10.922;2023-02-15T14:18:06;10.55;;;4.95;;
6663;SDS011;58749;48.022;10.922;2023-02-15T14:20:47;12.07;;;5.68;;
6663;SDS011;58749;48.022;10.922;2023-02-15T14:23:27;8.65;;;4.78;;
6663;SDS011;58749;48.022;10.922;2023-02-15T14:26:06;8.23;;;5.20;;
6663;SDS011;58749;48.022;10.922;2023-02-15T14:28:45;7.85;;;4.82;;
6663;SDS011;58749;48.022;10.922;2023-02-15T14:31:18;10.75;;;4.82;;
6663;SDS011;58749;48.022;10.922;2023-02-15T14:33:54;8.57;;;5.75;;
6663;SDS011;58749;48.022;10.922;2023-02-15T14:36:24;7.30;;;5.25;;
6663;SDS011;58749;48.022;10.922;2023-02-15T14:41:35;6.65;;;4.65;;
6663;SDS011;58749;48.022;10.922;2023-02-15T14:44:10;8.88;;;5.70;;
6663;SDS011;58749;48.022;10.922;2023-02-15T14:46:45;9.52;;;6.07;;
6663;SDS011;58749;48.022;10.922;2023-02-15T14:49:19;8.82;;;5.20;;
6663;SDS011;58749;48.022;10.922;2023-02-15T14:52:03;9.95;;;6.63;;
6663;SDS011;58749;48.022;10.922;2023-02-15T14:57:22;10.85;;;6.68;;
6663;SDS011;58749;48.022;10.922;2023-02-15T14:59:54;12.73;;;7.43;;
6663;SDS011;58749;48.022;10.922;2023-02-15T15:02:25;11.25;;;6.57;;
6663;SDS011;58749;48.022;10.922;2023-02-15T15:05:00;10.50;;;7.07;;
6663;SDS011;58749;48.022;10.922;2023-02-15T15:07:37;14.57;;;6.93;;
6663;SDS011;58749;48.022;10.922;2023-02-15T15:22:34;11.70;;;7.25;;
6663;SDS011;58749;48.022;10.922;2023-02-15T15:25:04;11.10;;;7.15;;
6663;SDS011;58749;48.022;10.922;2023-02-15T15:27:38;14.38;;;7.43;;
6663;SDS011;58749;48.022;10.922;2023-02-15T15:33:43;15.05;;;7.47;;
6663;SDS011;58749;48.022;10.922;2023-02-15T15:39:44;12.23;;;7.80;;
6663;SDS011;58749;48.022;10.922;2023-02-15T15:42:38;10.73;;;6.97;;
6663;SDS011;58749;48.022;10.922;2023-02-15T15:51:09;12.90;;;8.40;;
6663;SDS011;58749;48.022;10.922;2023-02-15T15:53:42;12.35;;;7.90;;
6663;SDS011;58749;48.022;10.922;2023-02-15T15:56:15;15.45;;;8.60;;
6663;SDS011;58749;48.022;10.922;2023-02-15T15:58:48;13.20;;;7.93;;